sensor_id;sensor_type;location;lat;lon;timestamp;pressure;altitude;pressure_sealevel;temperature;humidity
20710;BME280;10516;51.518;9.864;2023-04-23T00:01:59;97952.34;;;15.05;67.67
20710;BME280;10516;51.518;9.864;2023-04-23T00:04:25;97955.31;;;14.90;68.43
20710;BME280;10516;51.518;9.864;2023-04-23T00:06:51;97956.50;;;14.70;69.30
20710;BME280;10516;51.518;9.864;2023-04-23T00:09:16;97949.06;;;14.94;67.76
20710;BME280;10516;51.518;9.864;2023-04-23T00:11:42;97946.19;;;15.05;67.45
20710;BME280;10516;51.518;9.864;2023-04-23T00:14:07;97945.06;;;14.92;67.74
20710;BME280;10516;51.518;9.864;2023-04-23T00:16:33;97937.31;;;15.04;67.80
20710;BME280;10516;51.518;9.864;2023-04-23T00:18:58;97944.59;;;15.03;68.07
20710;BME280;10516;51.518;9.864;2023-04-23T00:21:24;97944.00;;;14.93;68.51
20710;BME280;10516;51.518;9.864;2023-04-23T00:23:49;97947.28;;;15.17;67.45
20710;BME280;10516;51.518;9.864;2023-04-23T00:26:15;97943.38;;;15.23;67.52
20710;BME280;10516;51.518;9.864;2023-04-23T00:28:42;97945.97;;;15.15;67.62
20710;BME280;10516;51.518;9.864;2023-04-23T00:31:07;97939.13;;;15.22;67.07
20710;BME280;10516;51.518;9.864;2023-04-23T00:33:32;97947.28;;;15.17;67.51
20710;BME280;10516;51.518;9.864;2023-04-23T00:35:58;97943.00;;;15.02;68.94
20710;BME280;10516;51.518;9.864;2023-04-23T00:38:23;97943.50;;;15.05;68.64
20710;BME280;10516;51.518;9.864;2023-04-23T00:40:50;97933.44;;;14.83;70.04
20710;BME280;10516;51.518;9.864;2023-04-23T00:43:15;97938.91;;;14.91;69.54
20710;BME280;10516;51.518;9.864;2023-04-23T00:45:41;97938.44;;;14.89;70.48
20710;BME280;10516;51.518;9.864;2023-04-23T00:48:07;97932.13;;;14.94;70.56
20710;BME280;10516;51.518;9.864;2023-04-23T00:50:32;97942.56;;;14.68;72.48
20710;BME280;10516;51.518;9.864;2023-04-23T00:52:57;97936.91;;;14.83;71.37
20710;BME280;10516;51.518;9.864;2023-04-23T00:55:22;97938.81;;;14.69;72.18
20710;BME280;10516;51.518;9.864;2023-04-23T00:57:48;97943.28;;;14.74;72.59
20710;BME280;10516;51.518;9.864;2023-04-23T01:00:14;97936.63;;;14.71;72.16
20710;BME280;10516;51.518;9.864;2023-04-23T01:02:39;97935.00;;;14.70;72.21
20710;BME280;10516;51.518;9.864;2023-04-23T01:05:05;97944.38;;;14.73;72.63
20710;BME280;10516;51.518;9.864;2023-04-23T01:07:32;97935.00;;;14.57;73.34
20710;BME280;10516;51.518;9.864;2023-04-23T01:09:58;97927.34;;;14.77;72.65
20710;BME280;10516;51.518;9.864;2023-04-23T01:12:23;97921.00;;;14.73;73.48
20710;BME280;10516;51.518;9.864;2023-04-23T01:14:49;97928.53;;;14.58;73.98
20710;BME280;10516;51.518;9.864;2023-04-23T01:17:14;97924.66;;;14.64;73.48
20710;BME280;10516;51.518;9.864;2023-04-23T01:19:40;97929.75;;;14.65;73.25
20710;BME280;10516;51.518;9.864;2023-04-23T01:22:09;97924.88;;;14.67;73.68
20710;BME280;10516;51.518;9.864;2023-04-23T01:24:35;97934.00;;;14.66;73.43
20710;BME280;10516;51.518;9.864;2023-04-23T01:27:00;97926.22;;;14.51;74.31
20710;BME280;10516;51.518;9.864;2023-04-23T01:29:26;97937.47;;;14.21;76.80
20710;BME280;10516;51.518;9.864;2023-04-23T01:31:52;97927.44;;;14.26;76.53
20710;BME280;10516;51.518;9.864;2023-04-23T01:34:18;97922.38;;;14.25;76.74
20710;BME280;10516;51.518;9.864;2023-04-23T01:36:43;97931.41;;;14.48;75.20
20710;BME280;10516;51.518;9.864;2023-04-23T01:39:09;97925.34;;;14.56;75.34
20710;BME280;10516;51.518;9.864;2023-04-23T01:41:34;97929.34;;;14.58;75.32
20710;BME280;10516;51.518;9.864;2023-04-23T01:44:00;97934.09;;;14.61;75.32
20710;BME280;10516;51.518;9.864;2023-04-23T01:46:25;97928.19;;;14.32;76.55
20710;BME280;10516;51.518;9.864;2023-04-23T01:48:51;97927.41;;;14.13;77.83
20710;BME280;10516;51.518;9.864;2023-04-23T01:51:16;97925.00;;;14.30;77.00
20710;BME280;10516;51.518;9.864;2023-04-23T01:53:42;97926.94;;;14.43;76.20
20710;BME280;10516;51.518;9.864;2023-04-23T01:56:07;97924.56;;;14.23;77.56
20710;BME280;10516;51.518;9.864;2023-04-23T01:58:34;97924.63;;;14.37;76.79
20710;BME280;10516;51.518;9.864;2023-04-23T02:01:00;97931.78;;;14.41;76.87
20710;BME280;10516;51.518;9.864;2023-04-23T02:03:25;97928.22;;;14.27;77.09
20710;BME280;10516;51.518;9.864;2023-04-23T02:05:52;97928.66;;;14.02;78.97
20710;BME280;10516;51.518;9.864;2023-04-23T02:08:19;97931.94;;;14.31;77.37
20710;BME280;10516;51.518;9.864;2023-04-23T02:10:47;97929.78;;;14.33;77.20
20710;BME280;10516;51.518;9.864;2023-04-23T02:13:12;97924.25;;;14.24;78.34
20710;BME280;10516;51.518;9.864;2023-04-23T02:15:38;97932.44;;;14.01;79.05
20710;BME280;10516;51.518;9.864;2023-04-23T02:18:04;97935.13;;;14.33;77.50
20710;BME280;10516;51.518;9.864;2023-04-23T02:20:30;97929.78;;;14.33;77.09
20710;BME280;10516;51.518;9.864;2023-04-23T02:22:55;97929.38;;;14.40;77.15
20710;BME280;10516;51.518;9.864;2023-04-23T02:25:21;97936.63;;;14.07;78.43
20710;BME280;10516;51.518;9.864;2023-04-23T02:27:47;97938.53;;;13.88;79.65
20710;BME280;10516;51.518;9.864;2023-04-23T02:30:12;97944.09;;;14.10;78.14
20710;BME280;10516;51.518;9.864;2023-04-23T02:32:38;97944.84;;;13.97;79.44
20710;BME280;10516;51.518;9.864;2023-04-23T02:35:04;97943.25;;;14.28;78.20
20710;BME280;10516;51.518;9.864;2023-04-23T02:37:33;97941.63;;;14.32;77.85
20710;BME280;10516;51.518;9.864;2023-04-23T02:39:59;97936.81;;;14.29;77.85
20710;BME280;10516;51.518;9.864;2023-04-23T02:42:24;97940.50;;;14.33;78.36
20710;BME280;10516;51.518;9.864;2023-04-23T02:44:50;97930.00;;;14.37;77.75
20710;BME280;10516;51.518;9.864;2023-04-23T02:47:15;97932.94;;;14.35;78.30
20710;BME280;10516;51.518;9.864;2023-04-23T02:49:41;97936.16;;;14.37;78.31
20710;BME280;10516;51.518;9.864;2023-04-23T02:52:06;97939.84;;;14.41;78.09
20710;BME280;10516;51.518;9.864;2023-04-23T02:54:31;97942.31;;;14.38;77.85
20710;BME280;10516;51.518;9.864;2023-04-23T02:56:57;97952.66;;;14.44;77.87
20710;BME280;10516;51.518;9.864;2023-04-23T02:59:22;97953.94;;;14.33;78.11
20710;BME280;10516;51.518;9.864;2023-04-23T03:01:47;97960.63;;;13.98;79.96
20710;BME280;10516;51.518;9.864;2023-04-23T03:04:13;97954.91;;;13.49;81.60
20710;BME280;10516;51.518;9.864;2023-04-23T03:06:38;97957.97;;;13.80;80.38
20710;BME280;10516;51.518;9.864;2023-04-23T03:09:03;97966.97;;;13.89;79.83
20710;BME280;10516;51.518;9.864;2023-04-23T03:11:29;97969.88;;;13.74;79.69
20710;BME280;10516;51.518;9.864;2023-04-23T03:13:54;97973.34;;;13.93;79.08
20710;BME280;10516;51.518;9.864;2023-04-23T03:16:19;97968.75;;;13.75;79.49
20710;BME280;10516;51.518;9.864;2023-04-23T03:18:44;97971.09;;;13.63;80.08
20710;BME280;10516;51.518;9.864;2023-04-23T03:21:10;97972.22;;;13.57;80.33
20710;BME280;10516;51.518;9.864;2023-04-23T03:23:35;97967.16;;;13.55;79.99
20710;BME280;10516;51.518;9.864;2023-04-23T03:26:00;97963.53;;;13.46;79.99
20710;BME280;10516;51.518;9.864;2023-04-23T03:28:26;97962.00;;;13.59;79.58
20710;BME280;10516;51.518;9.864;2023-04-23T03:30:51;97965.78;;;13.58;79.65
20710;BME280;10516;51.518;9.864;2023-04-23T03:33:16;97964.78;;;13.53;79.60
20710;BME280;10516;51.518;9.864;2023-04-23T03:35:42;97965.59;;;13.54;79.65
20710;BME280;10516;51.518;9.864;2023-04-23T03:38:07;97965.41;;;13.45;79.79
20710;BME280;10516;51.518;9.864;2023-04-23T03:40:32;97959.53;;;13.43;80.01
20710;BME280;10516;51.518;9.864;2023-04-23T03:42:58;97964.13;;;13.43;79.40
20710;BME280;10516;51.518;9.864;2023-04-23T03:45:23;97954.53;;;13.37;79.90
20710;BME280;10516;51.518;9.864;2023-04-23T03:47:49;97961.63;;;13.28;79.97
20710;BME280;10516;51.518;9.864;2023-04-23T03:50:14;97970.97;;;13.30;79.64
20710;BME280;10516;51.518;9.864;2023-04-23T03:52:41;97964.81;;;13.30;79.79
20710;BME280;10516;51.518;9.864;2023-04-23T03:55:06;97967.84;;;13.23;80.29
20710;BME280;10516;51.518;9.864;2023-04-23T03:57:32;97978.34;;;13.20;80.19
20710;BME280;10516;51.518;9.864;2023-04-23T03:59:57;97987.22;;;13.15;80.28
20710;BME280;10516;51.518;9.864;2023-04-23T04:02:22;97981.13;;;13.10;80.20
20710;BME280;10516;51.518;9.864;2023-04-23T04:04:48;97979.06;;;13.02;80.41
20710;BME280;10516;51.518;9.864;2023-04-23T04:07:15;97985.31;;;12.92;80.46
20710;BME280;10516;51.518;9.864;2023-04-23T04:09:41;97998.63;;;12.73;81.11
20710;BME280;10516;51.518;9.864;2023-04-23T04:12:06;97997.88;;;12.97;80.01
20710;BME280;10516;51.518;9.864;2023-04-23T04:14:31;98000.69;;;13.10;79.72
20710;BME280;10516;51.518;9.864;2023-04-23T04:16:57;98006.63;;;13.02;80.06
20710;BME280;10516;51.518;9.864;2023-04-23T04:19:22;98008.00;;;13.00;80.26
20710;BME280;10516;51.518;9.864;2023-04-23T04:21:47;98010.09;;;13.08;79.45
20710;BME280;10516;51.518;9.864;2023-04-23T04:24:13;98012.00;;;13.26;79.39
20710;BME280;10516;51.518;9.864;2023-04-23T04:26:38;98012.56;;;12.99;79.62
20710;BME280;10516;51.518;9.864;2023-04-23T04:29:04;98013.47;;;13.18;79.52
20710;BME280;10516;51.518;9.864;2023-04-23T04:31:30;98023.06;;;13.19;79.27
20710;BME280;10516;51.518;9.864;2023-04-23T04:33:56;98020.84;;;13.03;79.99
20710;BME280;10516;51.518;9.864;2023-04-23T04:36:22;98008.41;;;13.17;79.73
20710;BME280;10516;51.518;9.864;2023-04-23T04:38:49;98016.44;;;12.88;80.58
20710;BME280;10516;51.518;9.864;2023-04-23T04:41:15;98021.97;;;13.25;79.50
20710;BME280;10516;51.518;9.864;2023-04-23T04:43:41;98025.16;;;13.27;79.30
20710;BME280;10516;51.518;9.864;2023-04-23T04:46:07;98024.84;;;13.29;79.27
20710;BME280;10516;51.518;9.864;2023-04-23T04:48:35;98028.97;;;13.21;79.51
20710;BME280;10516;51.518;9.864;2023-04-23T04:51:00;98027.03;;;13.27;79.21
20710;BME280;10516;51.518;9.864;2023-04-23T04:53:26;98028.34;;;13.29;79.30
20710;BME280;10516;51.518;9.864;2023-04-23T04:55:51;98024.13;;;13.23;79.67
20710;BME280;10516;51.518;9.864;2023-04-23T04:58:16;98026.53;;;13.25;79.48
20710;BME280;10516;51.518;9.864;2023-04-23T05:00:41;98040.56;;;13.17;79.87
20710;BME280;10516;51.518;9.864;2023-04-23T05:03:07;98042.19;;;13.13;80.05
20710;BME280;10516;51.518;9.864;2023-04-23T05:05:32;98033.03;;;13.19;79.94
20710;BME280;10516;51.518;9.864;2023-04-23T05:07:57;98035.75;;;13.14;79.87
20710;BME280;10516;51.518;9.864;2023-04-23T05:10:26;98036.44;;;13.24;79.81
20710;BME280;10516;51.518;9.864;2023-04-23T05:12:51;98035.78;;;12.80;81.43
20710;BME280;10516;51.518;9.864;2023-04-23T05:15:16;98040.31;;;13.13;80.20
20710;BME280;10516;51.518;9.864;2023-04-23T05:17:42;98054.13;;;13.25;80.04
20710;BME280;10516;51.518;9.864;2023-04-23T05:20:08;98044.13;;;13.07;80.56
20710;BME280;10516;51.518;9.864;2023-04-23T05:22:37;98050.69;;;13.20;80.08
20710;BME280;10516;51.518;9.864;2023-04-23T05:25:03;98042.97;;;13.13;80.56
20710;BME280;10516;51.518;9.864;2023-04-23T05:27:29;98041.75;;;13.29;79.96
20710;BME280;10516;51.518;9.864;2023-04-23T05:29:54;98039.75;;;13.40;79.49
20710;BME280;10516;51.518;9.864;2023-04-23T05:32:19;98038.75;;;13.07;80.90
20710;BME280;10516;51.518;9.864;2023-04-23T05:34:44;98042.25;;;13.31;79.79
20710;BME280;10516;51.518;9.864;2023-04-23T05:37:09;98042.75;;;13.33;79.63
20710;BME280;10516;51.518;9.864;2023-04-23T05:39:35;98046.09;;;13.25;80.20
20710;BME280;10516;51.518;9.864;2023-04-23T05:42:00;98045.44;;;13.33;80.16
20710;BME280;10516;51.518;9.864;2023-04-23T05:44:27;98047.38;;;13.51;79.55
20710;BME280;10516;51.518;9.864;2023-04-23T05:46:52;98047.44;;;13.46;79.79
20710;BME280;10516;51.518;9.864;2023-04-23T05:49:17;98052.16;;;13.54;79.57
20710;BME280;10516;51.518;9.864;2023-04-23T05:51:43;98054.13;;;13.25;80.46
20710;BME280;10516;51.518;9.864;2023-04-23T05:54:08;98047.78;;;13.40;80.51
20710;BME280;10516;51.518;9.864;2023-04-23T05:56:33;98038.66;;;13.41;80.40
20710;BME280;10516;51.518;9.864;2023-04-23T05:59:02;98030.06;;;12.29;84.39
20710;BME280;10516;51.518;9.864;2023-04-23T06:01:27;98031.31;;;12.03;86.95
20710;BME280;10516;51.518;9.864;2023-04-23T06:03:52;98044.13;;;12.73;83.92
20710;BME280;10516;51.518;9.864;2023-04-23T06:06:18;98054.84;;;13.02;82.17
20710;BME280;10516;51.518;9.864;2023-04-23T06:08:43;98057.53;;;13.31;81.09
20710;BME280;10516;51.518;9.864;2023-04-23T06:11:08;98060.50;;;13.29;81.00
20710;BME280;10516;51.518;9.864;2023-04-23T06:13:34;98057.78;;;13.34;80.52
20710;BME280;10516;51.518;9.864;2023-04-23T06:16:04;98069.44;;;13.20;81.56
20710;BME280;10516;51.518;9.864;2023-04-23T06:18:29;98064.59;;;13.22;81.48
20710;BME280;10516;51.518;9.864;2023-04-23T06:20:55;98077.56;;;13.38;80.89
20710;BME280;10516;51.518;9.864;2023-04-23T06:23:21;98073.78;;;13.39;80.65
20710;BME280;10516;51.518;9.864;2023-04-23T06:25:46;98080.47;;;13.42;80.38
20710;BME280;10516;51.518;9.864;2023-04-23T06:28:11;98087.28;;;12.72;84.80
20710;BME280;10516;51.518;9.864;2023-04-23T06:30:37;98079.44;;;13.14;82.32
20710;BME280;10516;51.518;9.864;2023-04-23T06:33:02;98079.31;;;13.24;81.60
20710;BME280;10516;51.518;9.864;2023-04-23T06:35:28;98072.44;;;13.13;82.73
20710;BME280;10516;51.518;9.864;2023-04-23T06:37:53;98078.06;;;13.40;81.31
20710;BME280;10516;51.518;9.864;2023-04-23T06:40:19;98076.00;;;13.32;81.65
20710;BME280;10516;51.518;9.864;2023-04-23T06:42:44;98069.06;;;13.03;83.76
20710;BME280;10516;51.518;9.864;2023-04-23T06:45:10;98068.53;;;13.29;82.30
20710;BME280;10516;51.518;9.864;2023-04-23T06:47:35;98068.06;;;13.22;84.93
20710;BME280;10516;51.518;9.864;2023-04-23T06:50:00;98072.19;;;13.38;83.43
20710;BME280;10516;51.518;9.864;2023-04-23T06:52:26;98068.03;;;13.51;81.42
20710;BME280;10516;51.518;9.864;2023-04-23T06:54:51;98064.81;;;13.73;78.83
20710;BME280;10516;51.518;9.864;2023-04-23T06:57:17;98062.13;;;13.73;78.99
20710;BME280;10516;51.518;9.864;2023-04-23T06:59:42;98064.09;;;13.67;79.05
20710;BME280;10516;51.518;9.864;2023-04-23T07:02:08;98071.25;;;13.72;79.27
20710;BME280;10516;51.518;9.864;2023-04-23T07:04:33;98066.97;;;13.71;78.70
20710;BME280;10516;51.518;9.864;2023-04-23T07:06:58;98064.94;;;13.63;79.52
20710;BME280;10516;51.518;9.864;2023-04-23T07:09:25;98059.00;;;13.66;79.04
20710;BME280;10516;51.518;9.864;2023-04-23T07:11:50;98057.06;;;13.71;79.16
20710;BME280;10516;51.518;9.864;2023-04-23T07:14:15;98052.81;;;13.89;77.28
20710;BME280;10516;51.518;9.864;2023-04-23T07:16:40;98056.88;;;13.86;77.70
20710;BME280;10516;51.518;9.864;2023-04-23T07:19:06;98052.25;;;13.68;78.60
20710;BME280;10516;51.518;9.864;2023-04-23T07:21:31;98053.22;;;13.77;77.65
20710;BME280;10516;51.518;9.864;2023-04-23T07:23:57;98052.75;;;13.51;76.45
20710;BME280;10516;51.518;9.864;2023-04-23T07:26:30;98054.81;;;13.78;77.47
20710;BME280;10516;51.518;9.864;2023-04-23T07:28:56;98049.78;;;13.72;77.31
20710;BME280;10516;51.518;9.864;2023-04-23T07:31:21;98047.91;;;13.72;76.54
20710;BME280;10516;51.518;9.864;2023-04-23T07:33:47;98056.25;;;13.71;76.25
20710;BME280;10516;51.518;9.864;2023-04-23T07:36:13;98064.44;;;13.61;77.14
20710;BME280;10516;51.518;9.864;2023-04-23T07:38:38;98056.59;;;13.64;76.20
20710;BME280;10516;51.518;9.864;2023-04-23T07:41:03;98052.84;;;13.41;76.24
20710;BME280;10516;51.518;9.864;2023-04-23T07:43:29;98054.50;;;13.61;75.64
20710;BME280;10516;51.518;9.864;2023-04-23T07:45:54;98048.09;;;13.57;75.56
20710;BME280;10516;51.518;9.864;2023-04-23T07:48:20;98042.38;;;13.45;75.98
20710;BME280;10516;51.518;9.864;2023-04-23T07:50:45;98041.44;;;13.54;74.94
20710;BME280;10516;51.518;9.864;2023-04-23T07:53:10;98045.13;;;13.59;74.32
20710;BME280;10516;51.518;9.864;2023-04-23T07:55:35;98048.16;;;13.52;74.70
20710;BME280;10516;51.518;9.864;2023-04-23T07:58:01;98046.22;;;13.58;74.18
20710;BME280;10516;51.518;9.864;2023-04-23T08:00:26;98043.75;;;13.61;73.79
20710;BME280;10516;51.518;9.864;2023-04-23T08:02:52;98023.84;;;13.25;74.47
20710;BME280;10516;51.518;9.864;2023-04-23T08:05:17;98028.78;;;13.60;73.56
20710;BME280;10516;51.518;9.864;2023-04-23T08:07:42;98026.09;;;13.60;73.56
20710;BME280;10516;51.518;9.864;2023-04-23T08:10:08;98022.91;;;13.77;72.26
20710;BME280;10516;51.518;9.864;2023-04-23T08:12:33;98019.16;;;13.78;72.16
20710;BME280;10516;51.518;9.864;2023-04-23T08:14:59;98012.44;;;13.80;72.64
20710;BME280;10516;51.518;9.864;2023-04-23T08:17:25;98011.97;;;13.73;72.78
20710;BME280;10516;51.518;9.864;2023-04-23T08:19:50;98007.31;;;13.79;73.12
20710;BME280;10516;51.518;9.864;2023-04-23T08:22:15;98019.00;;;13.88;72.95
20710;BME280;10516;51.518;9.864;2023-04-23T08:24:42;98016.38;;;13.83;72.90
20710;BME280;10516;51.518;9.864;2023-04-23T08:27:07;98016.31;;;13.88;73.23
20710;BME280;10516;51.518;9.864;2023-04-23T08:29:32;98023.72;;;13.96;72.97
20710;BME280;10516;51.518;9.864;2023-04-23T08:31:58;98023.44;;;13.97;72.09
20710;BME280;10516;51.518;9.864;2023-04-23T08:34:23;98019.22;;;13.91;72.54
20710;BME280;10516;51.518;9.864;2023-04-23T08:36:48;98004.66;;;13.79;73.12
20710;BME280;10516;51.518;9.864;2023-04-23T08:39:14;98002.19;;;13.82;73.63
20710;BME280;10516;51.518;9.864;2023-04-23T08:41:40;98009.56;;;14.09;72.27
20710;BME280;10516;51.518;9.864;2023-04-23T08:46:34;98017.25;;;14.15;72.08
20710;BME280;10516;51.518;9.864;2023-04-23T08:49:00;98008.22;;;14.30;71.42
20710;BME280;10516;51.518;9.864;2023-04-23T08:51:28;98007.63;;;13.96;71.57
20710;BME280;10516;51.518;9.864;2023-04-23T08:53:55;98008.34;;;13.83;73.13
20710;BME280;10516;51.518;9.864;2023-04-23T08:56:22;98008.22;;;14.30;72.15
20710;BME280;10516;51.518;9.864;2023-04-23T08:58:48;98018.66;;;14.32;71.73
20710;BME280;10516;51.518;9.864;2023-04-23T09:01:15;98013.50;;;14.35;71.33
20710;BME280;10516;51.518;9.864;2023-04-23T09:03:41;98016.34;;;14.44;70.79
20710;BME280;10516;51.518;9.864;2023-04-23T09:06:06;98019.53;;;14.59;70.52
20710;BME280;10516;51.518;9.864;2023-04-23T09:08:32;98022.03;;;14.56;70.64
20710;BME280;10516;51.518;9.864;2023-04-23T09:10:58;98017.91;;;14.45;70.53
20710;BME280;10516;51.518;9.864;2023-04-23T09:13:24;98019.13;;;14.52;70.12
20710;BME280;10516;51.518;9.864;2023-04-23T09:15:50;98017.97;;;14.58;69.37
20710;BME280;10516;51.518;9.864;2023-04-23T09:18:15;98006.50;;;14.53;69.61
20710;BME280;10516;51.518;9.864;2023-04-23T09:20:41;97999.66;;;14.60;68.05
20710;BME280;10516;51.518;9.864;2023-04-23T09:23:08;97996.63;;;14.48;69.89
20710;BME280;10516;51.518;9.864;2023-04-23T09:25:33;97984.34;;;14.74;68.92
20710;BME280;10516;51.518;9.864;2023-04-23T09:27:59;97989.56;;;14.84;68.12
20710;BME280;10516;51.518;9.864;2023-04-23T09:30:27;97989.16;;;14.91;68.38
20710;BME280;10516;51.518;9.864;2023-04-23T09:32:53;97989.59;;;14.98;67.68
20710;BME280;10516;51.518;9.864;2023-04-23T09:35:19;97992.47;;;15.01;68.50
20710;BME280;10516;51.518;9.864;2023-04-23T09:37:45;97984.91;;;15.03;66.86
20710;BME280;10516;51.518;9.864;2023-04-23T09:40:15;97980.03;;;15.33;67.26
20710;BME280;10516;51.518;9.864;2023-04-23T09:42:40;97973.88;;;15.46;66.47
20710;BME280;10516;51.518;9.864;2023-04-23T09:45:11;97978.13;;;15.47;66.69
20710;BME280;10516;51.518;9.864;2023-04-23T09:47:38;97979.03;;;15.56;66.37
20710;BME280;10516;51.518;9.864;2023-04-23T09:50:03;97969.16;;;15.65;66.63
20710;BME280;10516;51.518;9.864;2023-04-23T09:52:32;97968.84;;;15.66;66.22
20710;BME280;10516;51.518;9.864;2023-04-23T09:55:01;97963.91;;;15.82;65.54
20710;BME280;10516;51.518;9.864;2023-04-23T09:57:28;97970.91;;;15.83;65.33
20710;BME280;10516;51.518;9.864;2023-04-23T09:59:56;97963.13;;;15.82;66.28
20710;BME280;10516;51.518;9.864;2023-04-23T10:02:25;97967.56;;;16.00;65.82
20710;BME280;10516;51.518;9.864;2023-04-23T10:04:51;97978.28;;;16.13;65.24
20710;BME280;10516;51.518;9.864;2023-04-23T10:07:17;97978.75;;;16.15;64.98
20710;BME280;10516;51.518;9.864;2023-04-23T10:09:42;97976.78;;;16.29;65.10
20710;BME280;10516;51.518;9.864;2023-04-23T10:12:08;97966.22;;;16.33;64.84
20710;BME280;10516;51.518;9.864;2023-04-23T10:14:33;97970.53;;;16.42;64.45
20710;BME280;10516;51.518;9.864;2023-04-23T10:17:00;97983.53;;;16.40;62.78
20710;BME280;10516;51.518;9.864;2023-04-23T10:19:26;97974.19;;;16.38;64.49
20710;BME280;10516;51.518;9.864;2023-04-23T10:21:56;97968.28;;;16.36;63.84
20710;BME280;10516;51.518;9.864;2023-04-23T10:24:24;97963.16;;;16.48;63.29
20710;BME280;10516;51.518;9.864;2023-04-23T10:26:52;97960.28;;;16.22;64.25
20710;BME280;10516;51.518;9.864;2023-04-23T10:29:20;97969.41;;;16.35;63.73
20710;BME280;10516;51.518;9.864;2023-04-23T10:31:49;97964.19;;;16.38;63.57
20710;BME280;10516;51.518;9.864;2023-04-23T10:34:16;97973.50;;;16.32;63.48
20710;BME280;10516;51.518;9.864;2023-04-23T10:36:42;97959.34;;;16.49;62.55
20710;BME280;10516;51.518;9.864;2023-04-23T10:39:07;97953.09;;;16.62;61.72
20710;BME280;10516;51.518;9.864;2023-04-23T10:41:35;97963.34;;;16.82;61.51
20710;BME280;10516;51.518;9.864;2023-04-23T10:44:02;97959.97;;;17.07;61.08
20710;BME280;10516;51.518;9.864;2023-04-23T10:46:27;97959.22;;;17.15;60.79
20710;BME280;10516;51.518;9.864;2023-04-23T10:51:35;97955.63;;;17.37;59.43
20710;BME280;10516;51.518;9.864;2023-04-23T10:54:03;97946.44;;;17.38;59.56
20710;BME280;10516;51.518;9.864;2023-04-23T10:56:29;97957.16;;;17.60;58.82
20710;BME280;10516;51.518;9.864;2023-04-23T10:58:54;97961.56;;;17.56;59.02
20710;BME280;10516;51.518;9.864;2023-04-23T11:01:19;97947.59;;;17.71;58.79
20710;BME280;10516;51.518;9.864;2023-04-23T11:03:48;97961.91;;;17.63;58.80
20710;BME280;10516;51.518;9.864;2023-04-23T11:06:19;97958.56;;;17.58;59.92
20710;BME280;10516;51.518;9.864;2023-04-23T11:09:26;97948.13;;;17.82;58.53
20710;BME280;10516;51.518;9.864;2023-04-23T11:11:49;97944.63;;;17.90;58.30
20710;BME280;10516;51.518;9.864;2023-04-23T11:14:14;97954.13;;;17.79;57.42
20710;BME280;10516;51.518;9.864;2023-04-23T11:16:40;97948.25;;;17.60;58.81
20710;BME280;10516;51.518;9.864;2023-04-23T11:19:08;97941.75;;;17.13;57.10
20710;BME280;10516;51.518;9.864;2023-04-23T11:26:54;97933.66;;;17.13;58.28
20710;BME280;10516;51.518;9.864;2023-04-23T11:29:23;97932.56;;;17.14;57.42
20710;BME280;10516;51.518;9.864;2023-04-23T11:31:49;97924.84;;;17.30;57.56
20710;BME280;10516;51.518;9.864;2023-04-23T11:34:15;97926.09;;;17.32;56.00
20710;BME280;10516;51.518;9.864;2023-04-23T11:36:40;97923.72;;;17.39;57.32
20710;BME280;10516;51.518;9.864;2023-04-23T11:39:06;97912.03;;;17.61;57.80
20710;BME280;10516;51.518;9.864;2023-04-23T11:41:32;97907.16;;;17.88;57.29
20710;BME280;10516;51.518;9.864;2023-04-23T11:43:59;97909.03;;;17.96;56.79
20710;BME280;10516;51.518;9.864;2023-04-23T11:46:24;97904.28;;;17.85;56.75
20710;BME280;10516;51.518;9.864;2023-04-23T11:48:50;97897.13;;;17.89;55.81
20710;BME280;10516;51.518;9.864;2023-04-23T11:51:15;97894.13;;;17.82;55.90
20710;BME280;10516;51.518;9.864;2023-04-23T11:53:45;97889.97;;;18.10;57.65
20710;BME280;10516;51.518;9.864;2023-04-23T11:56:10;97889.72;;;18.58;56.04
20710;BME280;10516;51.518;9.864;2023-04-23T11:58:35;97881.38;;;18.80;55.86
20710;BME280;10516;51.518;9.864;2023-04-23T12:01:01;97888.28;;;18.90;55.71
20710;BME280;10516;51.518;9.864;2023-04-23T12:03:26;97884.44;;;18.99;54.81
20710;BME280;10516;51.518;9.864;2023-04-23T12:05:53;97888.81;;;19.12;52.78
20710;BME280;10516;51.518;9.864;2023-04-23T12:08:20;97880.75;;;19.04;54.53
20710;BME280;10516;51.518;9.864;2023-04-23T12:10:46;97882.03;;;19.06;55.18
20710;BME280;10516;51.518;9.864;2023-04-23T12:15:46;97870.44;;;19.26;55.05
20710;BME280;10516;51.518;9.864;2023-04-23T12:18:11;97870.44;;;19.26;54.64
20710;BME280;10516;51.518;9.864;2023-04-23T12:20:37;97879.22;;;19.23;55.60
20710;BME280;10516;51.518;9.864;2023-04-23T12:23:04;97875.41;;;18.95;56.32
20710;BME280;10516;51.518;9.864;2023-04-23T12:25:30;97875.53;;;18.99;55.83
20710;BME280;10516;51.518;9.864;2023-04-23T12:27:59;97870.00;;;18.95;55.87
20710;BME280;10516;51.518;9.864;2023-04-23T12:30:31;97866.06;;;18.84;56.37
20710;BME280;10516;51.518;9.864;2023-04-23T12:33:00;97866.91;;;19.05;54.00
20710;BME280;10516;51.518;9.864;2023-04-23T12:38:04;97856.41;;;19.33;54.25
20710;BME280;10516;51.518;9.864;2023-04-23T12:40:29;97854.19;;;19.56;53.44
20710;BME280;10516;51.518;9.864;2023-04-23T12:42:54;97858.41;;;19.44;54.45
20710;BME280;10516;51.518;9.864;2023-04-23T12:45:20;97855.44;;;19.29;53.70
20710;BME280;10516;51.518;9.864;2023-04-23T12:47:45;97853.44;;;19.47;52.64
20710;BME280;10516;51.518;9.864;2023-04-23T12:50:10;97856.03;;;19.43;52.61
20710;BME280;10516;51.518;9.864;2023-04-23T12:52:36;97847.03;;;19.72;51.44
20710;BME280;10516;51.518;9.864;2023-04-23T12:55:02;97848.50;;;19.69;50.69
20710;BME280;10516;51.518;9.864;2023-04-23T12:57:28;97849.03;;;19.42;52.73
20710;BME280;10516;51.518;9.864;2023-04-23T12:59:54;97853.09;;;19.27;53.22
20710;BME280;10516;51.518;9.864;2023-04-23T13:02:19;97846.47;;;19.16;52.79
20710;BME280;10516;51.518;9.864;2023-04-23T13:04:45;97849.69;;;19.10;53.89
20710;BME280;10516;51.518;9.864;2023-04-23T13:07:10;97851.94;;;18.79;55.21
20710;BME280;10516;51.518;9.864;2023-04-23T13:09:35;97843.22;;;18.73;55.17